createdAt,value
2022-08-11T00:01:34.643Z,4.03
2022-08-11T00:03:49.310Z,3.50
2022-08-11T00:05:53.717Z,3.63
2022-08-11T00:07:57.440Z,4.07
2022-08-11T00:09:59.847Z,4.03
2022-08-11T00:12:02.477Z,3.70
2022-08-11T00:14:14.849Z,3.00
2022-08-11T00:16:25.014Z,3.60
2022-08-11T00:18:27.474Z,2.70
2022-08-11T00:20:35.122Z,3.63
2022-08-11T00:22:39.682Z,3.57
2022-08-11T00:24:53.411Z,3.63
2022-08-11T00:26:57.231Z,3.80
2022-08-11T00:34:02.109Z,3.33
2022-08-11T00:36:05.133Z,3.30
2022-08-11T00:38:07.559Z,3.37
2022-08-11T00:40:18.217Z,3.27
2022-08-11T00:42:57.953Z,3.63
2022-08-11T00:45:51.498Z,3.50
2022-08-11T00:48:20.357Z,3.10
2022-08-11T00:50:50.276Z,3.90
2022-08-11T00:53:29.990Z,3.50
2022-08-11T00:55:47.333Z,3.90
2022-08-11T00:58:03.844Z,3.30
2022-08-11T01:00:23.296Z,3.53
2022-08-11T01:02:44.079Z,3.63
2022-08-11T01:04:56.930Z,3.40
2022-08-11T01:07:15.622Z,3.33
2022-08-11T01:09:52.874Z,3.70
2022-08-11T01:12:32.700Z,3.53
2022-08-11T01:14:47.079Z,3.47
2022-08-11T01:17:04.463Z,3.87
2022-08-11T01:20:45.904Z,3.90
2022-08-11T01:22:23.705Z,3.87
2022-08-11T01:25:00.799Z,3.37
2022-08-11T01:27:21.064Z,4.03
2022-08-11T01:29:54.390Z,4.13
2022-08-11T01:32:28.090Z,3.40
2022-08-11T01:35:07.295Z,3.57
2022-08-11T01:37:38.209Z,3.73
2022-08-11T01:39:52.544Z,3.60
2022-08-11T01:42:35.206Z,3.87
2022-08-11T01:44:54.301Z,3.70
2022-08-11T01:47:36.840Z,3.50
2022-08-11T01:50:09.457Z,3.63
2022-08-11T01:52:30.946Z,4.10
2022-08-11T01:54:42.737Z,3.50
2022-08-11T01:56:48.315Z,3.70
2022-08-11T01:59:18.504Z,4.60
2022-08-11T02:01:32.773Z,3.80
2022-08-11T02:03:39.480Z,3.63
2022-08-11T02:05:50.756Z,3.90
2022-08-11T02:08:02.437Z,4.07
2022-08-11T02:10:50.657Z,4.50
2022-08-11T02:12:59.508Z,4.40
2022-08-11T02:15:25.147Z,3.50
2022-08-11T02:17:36.163Z,4.57
2022-08-11T02:20:02.497Z,4.17
2022-08-11T02:22:49.341Z,4.20
2022-08-11T02:25:20.475Z,4.33
2022-08-11T02:27:25.587Z,4.00
2022-08-11T02:30:06.403Z,4.73
2022-08-11T02:32:39.449Z,4.70
2022-08-11T02:34:44.414Z,3.90
2022-08-11T02:37:24.392Z,4.77
2022-08-11T02:39:35.277Z,4.30
2022-08-11T02:41:56.321Z,4.60
2022-08-11T02:44:13.468Z,4.47
2022-08-11T02:46:29.541Z,4.97
2022-08-11T02:49:18.753Z,5.23
2022-08-11T02:51:36.672Z,5.60
2022-08-11T02:54:00.388Z,4.90
2022-08-11T02:56:22.967Z,5.57
2022-08-11T02:59:08.779Z,4.87
2022-08-11T03:01:32.373Z,5.50
2022-08-11T03:03:44.536Z,5.43
2022-08-11T03:06:07.985Z,5.13
2022-08-11T03:08:41.108Z,5.10
2022-08-11T03:11:21.005Z,5.90
2022-08-11T03:13:47.954Z,5.93
2022-08-11T03:16:34.630Z,5.53
2022-08-11T03:18:45.563Z,5.07
2022-08-11T03:20:56.307Z,5.10
2022-08-11T03:22:58.581Z,6.03
2022-08-11T03:25:13.195Z,5.23
2022-08-11T03:27:42.020Z,5.60
2022-08-11T03:30:03.895Z,5.50
2022-08-11T03:32:45.065Z,5.77
2022-08-11T03:34:48.484Z,5.60
2022-08-11T03:37:15.493Z,5.97
2022-08-11T03:39:40.427Z,5.87
2022-08-11T03:42:10.797Z,6.73
2022-08-11T03:44:38.703Z,5.23
2022-08-11T03:47:10.024Z,5.77
2022-08-11T03:49:42.636Z,5.63
2022-08-11T03:52:07.961Z,5.93
2022-08-11T03:54:20.434Z,6.43
2022-08-11T03:56:52.794Z,6.50
2022-08-11T03:59:10.604Z,6.33
2022-08-11T04:01:35.075Z,5.90
2022-08-11T04:03:53.061Z,6.67
2022-08-11T04:06:21.274Z,6.20
2022-08-11T04:08:34.187Z,6.83
2022-08-11T04:10:46.259Z,7.60
2022-08-11T04:12:51.401Z,6.50
2022-08-11T04:15:38.763Z,6.47
2022-08-11T04:17:59.716Z,6.47
2022-08-11T04:20:21.228Z,7.00
2022-08-11T04:22:41.745Z,7.90
2022-08-11T04:24:59.353Z,7.53
2022-08-11T04:27:40.283Z,6.83
2022-08-11T04:30:12.173Z,6.80
2022-08-11T04:32:36.853Z,6.67
2022-08-11T04:34:58.458Z,6.70
2022-08-11T04:37:28.327Z,6.17
2022-08-11T04:39:49.803Z,7.40
2022-08-11T04:42:52.865Z,6.90
2022-08-11T04:45:22.427Z,6.20
2022-08-11T04:48:08.623Z,6.00
2022-08-11T04:51:08.643Z,6.60
2022-08-11T04:53:34.414Z,7.03
2022-08-11T04:56:19.180Z,7.10
2022-08-11T04:59:17.417Z,7.13
2022-08-11T05:01:43.880Z,7.60
2022-08-11T05:04:30.558Z,7.30
2022-08-11T05:07:08.366Z,6.47
2022-08-11T05:09:49.203Z,7.70
2022-08-11T05:12:01.639Z,6.73
2022-08-11T05:14:31.670Z,6.60
2022-08-11T05:17:09.185Z,7.30
2022-08-11T05:19:36.028Z,6.90
2022-08-11T05:21:59.281Z,7.23
2022-08-11T05:24:28.821Z,6.07
2022-08-11T05:27:00.716Z,6.93
2022-08-11T05:29:23.569Z,5.00
2022-08-11T05:31:51.947Z,5.63
2022-08-11T05:34:22.015Z,6.60
2022-08-11T05:36:56.390Z,5.50
2022-08-11T05:39:33.770Z,6.17
2022-08-11T05:41:57.706Z,5.40
2022-08-11T05:44:22.425Z,6.07
2022-08-11T05:46:43.436Z,5.17
2022-08-11T05:49:05.310Z,5.00
2022-08-11T05:51:30.426Z,5.53
2022-08-11T05:53:51.566Z,5.30
2022-08-11T05:56:12.785Z,5.30
2022-08-11T05:58:15.393Z,5.00
2022-08-11T06:00:18.991Z,4.80
2022-08-11T06:02:21.317Z,5.77
2022-08-11T06:04:24.453Z,5.63
2022-08-11T06:06:27.452Z,5.20
2022-08-11T06:08:36.400Z,5.57
2022-08-11T06:10:42.421Z,4.90
2022-08-11T06:12:44.818Z,4.40
2022-08-11T06:14:49.649Z,4.97
2022-08-11T06:16:56.260Z,5.63
2022-08-11T06:18:58.877Z,5.07
2022-08-11T06:21:01.101Z,4.70
2022-08-11T06:23:04.893Z,4.67
2022-08-11T06:25:08.582Z,4.90
2022-08-11T06:27:13.543Z,4.37
2022-08-11T06:29:18.571Z,5.07
2022-08-11T06:31:25.134Z,5.00
2022-08-11T06:33:33.957Z,4.33
2022-08-11T06:35:48.348Z,4.80
2022-08-11T06:37:59.133Z,4.77
2022-08-11T06:40:10.858Z,4.73
2022-08-11T06:42:29.066Z,4.50
2022-08-11T06:44:40.549Z,4.10
2022-08-11T06:46:46.786Z,4.40
2022-08-11T06:48:49.313Z,4.07
2022-08-11T06:51:12.654Z,4.70
2022-08-11T06:53:18.083Z,4.43
2022-08-11T06:55:59.024Z,4.00
2022-08-11T06:58:21.913Z,4.53
2022-08-11T07:00:28.192Z,4.60
2022-08-11T07:02:52.486Z,3.73
2022-08-11T07:05:04.532Z,4.00
2022-08-11T07:07:59.318Z,4.73
2022-08-11T07:10:46.305Z,4.67
2022-08-11T07:13:09.501Z,4.13
2022-08-11T07:16:10.940Z,4.40
2022-08-11T07:18:25.220Z,4.17
2022-08-11T07:21:02.656Z,4.20
2022-08-11T07:23:27.321Z,4.60
2022-08-11T07:25:48.403Z,3.87
2022-08-11T07:28:15.704Z,3.90
2022-08-11T07:30:18.315Z,4.00
2022-08-11T07:32:29.085Z,4.70
2022-08-11T07:34:38.440Z,3.77
2022-08-11T07:36:43.250Z,4.03
2022-08-11T07:38:50.867Z,4.03
2022-08-11T07:40:53.188Z,3.90
2022-08-11T07:42:55.891Z,3.67
2022-08-11T07:45:16.598Z,4.07
2022-08-11T07:47:48.074Z,4.20
2022-08-11T07:50:09.396Z,4.10
2022-08-11T07:52:30.085Z,4.03
2022-08-11T07:54:33.602Z,3.50
2022-08-11T07:56:54.309Z,4.00
2022-08-11T07:59:16.261Z,4.13
2022-08-11T08:01:40.895Z,3.73
2022-08-11T08:04:03.133Z,3.67
2022-08-11T08:06:36.369Z,3.20
2022-08-11T08:08:59.156Z,3.40
2022-08-11T08:11:27.157Z,4.33
2022-08-11T08:13:50.639Z,3.47
2022-08-11T08:16:12.503Z,3.23
2022-08-11T08:18:25.909Z,4.33
2022-08-11T08:20:40.979Z,3.90
2022-08-11T08:22:48.510Z,3.60
2022-08-11T08:24:51.530Z,3.60
2022-08-11T08:26:59.796Z,3.83
2022-08-11T08:29:24.348Z,4.70
2022-08-11T08:31:26.649Z,2.97
2022-08-11T08:33:31.367Z,3.20
2022-08-11T08:35:36.037Z,3.50
2022-08-11T08:37:59.126Z,3.30
2022-08-11T08:40:01.428Z,3.40
2022-08-11T08:42:09.249Z,3.17
2022-08-11T08:44:38.947Z,3.60
2022-08-11T08:46:37.701Z,3.20
2022-08-11T08:48:41.452Z,3.50
2022-08-11T08:51:08.043Z,3.33
2022-08-11T08:53:10.871Z,3.13
2022-08-11T08:55:18.396Z,2.93
2022-08-11T08:57:23.494Z,3.17
2022-08-11T08:59:27.082Z,3.10
2022-08-11T09:02:01.873Z,3.20
2022-08-11T09:04:11.770Z,3.77
2022-08-11T09:06:18.748Z,3.00
2022-08-11T09:08:23.060Z,3.40
2022-08-11T09:10:26.032Z,3.40
2022-08-11T09:12:36.060Z,3.33
2022-08-11T09:15:02.520Z,2.80
2022-08-11T09:17:06.715Z,3.33
2022-08-11T09:19:09.327Z,3.33
2022-08-11T09:21:14.878Z,3.87
2022-08-11T09:24:08.748Z,2.83
2022-08-11T09:26:32.250Z,3.00
2022-08-11T09:28:36.912Z,3.30
2022-08-11T09:30:42.943Z,3.50
2022-08-11T09:32:45.220Z,2.93
2022-08-11T09:34:47.773Z,3.67
2022-08-11T09:37:09.005Z,3.03
2022-08-11T09:39:31.608Z,3.00
2022-08-11T09:42:01.672Z,3.30
2022-08-11T09:44:17.278Z,3.60
2022-08-11T09:46:27.760Z,3.50
2022-08-11T09:48:33.403Z,3.80
2022-08-11T09:50:38.314Z,4.43
2022-08-11T09:52:57.205Z,3.27
2022-08-11T09:55:11.126Z,3.30
2022-08-11T09:57:32.073Z,3.80
2022-08-11T09:59:34.777Z,3.23
2022-08-11T10:02:03.595Z,2.93
2022-08-11T10:04:24.674Z,2.73
2022-08-11T10:06:47.579Z,2.90
2022-08-11T10:08:52.226Z,2.60
2022-08-11T10:10:55.021Z,2.50
2022-08-11T10:13:04.476Z,2.73
2022-08-11T10:15:30.177Z,2.73
2022-08-11T10:17:35.279Z,2.60
2022-08-11T10:19:37.979Z,2.70
2022-08-11T10:22:05.544Z,2.60
2022-08-11T10:27:06.241Z,3.00
2022-08-11T10:29:30.245Z,2.20
2022-08-11T10:32:14.336Z,2.50
2022-08-11T10:34:16.985Z,2.90
2022-08-11T10:36:22.007Z,2.93
2022-08-11T10:38:24.367Z,2.37
2022-08-11T10:40:27.245Z,2.47
2022-08-11T10:42:57.817Z,2.50
2022-08-11T10:45:02.160Z,2.90
2022-08-11T10:47:25.192Z,2.63
2022-08-11T10:49:27.668Z,2.30
2022-08-11T10:51:50.951Z,2.63
2022-08-11T10:54:12.966Z,2.73
2022-08-11T10:56:34.284Z,2.60
2022-08-11T10:58:50.516Z,2.87
2022-08-11T11:00:56.932Z,2.57
2022-08-11T11:03:22.610Z,2.67
2022-08-11T11:05:26.877Z,2.90
2022-08-11T11:07:44.047Z,2.20
2022-08-11T11:10:09.218Z,2.53
2022-08-11T11:12:33.036Z,2.50
2022-08-11T11:14:59.029Z,2.50
2022-08-11T11:17:09.535Z,2.57
2022-08-11T11:19:12.288Z,2.30
2022-08-11T11:21:19.115Z,2.50
2022-08-11T11:23:40.182Z,3.07
2022-08-11T11:26:10.346Z,2.40
2022-08-11T11:28:34.654Z,2.77
2022-08-11T11:31:21.257Z,2.40
2022-08-11T11:34:06.722Z,2.90
2022-08-11T11:36:07.568Z,2.93
2022-08-11T11:38:13.752Z,2.63
2022-08-11T11:40:21.436Z,2.40
2022-08-11T11:42:30.980Z,2.43
2022-08-11T11:44:33.514Z,2.60
2022-08-11T11:46:38.963Z,3.00
2022-08-11T11:48:41.994Z,2.43
2022-08-11T11:50:44.675Z,2.40
2022-08-11T11:52:46.941Z,2.90
2022-08-11T11:54:52.347Z,2.50
2022-08-11T11:56:56.376Z,2.80
2022-08-11T11:59:17.570Z,3.17
2022-08-11T12:01:22.300Z,2.77
2022-08-11T12:03:25.488Z,2.70
2022-08-11T12:05:28.502Z,2.63
2022-08-11T12:07:56.884Z,2.60
2022-08-11T12:10:12.131Z,2.63
2022-08-11T12:12:33.296Z,3.10
2022-08-11T12:14:36.756Z,2.60
2022-08-11T12:16:43.927Z,3.07
2022-08-11T12:18:47.949Z,2.53
2022-08-11T12:20:54.019Z,2.77
2022-08-11T12:23:15.866Z,3.23
2022-08-11T12:25:36.860Z,2.80
2022-08-11T12:27:40.622Z,2.00
2022-08-11T12:29:44.454Z,2.27
2022-08-11T12:31:47.296Z,2.57
2022-08-11T12:33:50.591Z,2.60
2022-08-11T12:36:00.599Z,3.40
2022-08-11T12:38:10.692Z,2.10
2022-08-11T12:40:42.865Z,2.90
2022-08-11T12:43:37.729Z,2.50
2022-08-11T12:45:42.919Z,2.50
2022-08-11T12:48:57.336Z,2.90
2022-08-11T12:50:49.922Z,2.47
2022-08-11T12:52:54.423Z,2.30
2022-08-11T12:55:14.144Z,2.13
2022-08-11T12:57:38.072Z,2.27
2022-08-11T12:59:59.723Z,2.40
2022-08-11T13:02:21.960Z,2.60
2022-08-11T13:04:45.320Z,2.57
2022-08-11T13:06:52.586Z,2.83
2022-08-11T13:09:00.978Z,2.27
2022-08-11T13:11:22.728Z,2.80
2022-08-11T13:13:54.168Z,2.70
2022-08-11T13:15:49.804Z,2.70
2022-08-11T13:17:54.735Z,2.77
2022-08-11T13:20:00.236Z,2.87
2022-08-11T13:22:05.180Z,2.50
2022-08-11T13:24:07.287Z,2.87
2022-08-11T13:26:09.911Z,2.90
2022-08-11T13:28:12.682Z,2.40
2022-08-11T13:30:35.798Z,2.50
2022-08-11T13:32:42.389Z,2.50
2022-08-11T13:34:47.502Z,2.17
2022-08-11T13:36:52.507Z,2.47
2022-08-11T13:38:58.547Z,2.73
2022-08-11T13:41:00.877Z,2.40
2022-08-11T13:43:03.171Z,2.50
2022-08-11T13:45:07.524Z,2.77
2022-08-11T13:47:12.629Z,2.47
2022-08-11T13:49:16.799Z,3.10
2022-08-11T13:51:34.742Z,3.10
2022-08-11T13:53:37.127Z,2.83
2022-08-11T13:55:51.570Z,2.83
2022-08-11T13:58:08.784Z,2.90
2022-08-11T14:00:27.627Z,2.50
2022-08-11T14:02:31.876Z,2.40
2022-08-11T14:04:42.031Z,3.30
2022-08-11T14:06:47.166Z,3.00
2022-08-11T14:08:49.627Z,2.70
2022-08-11T14:12:20.554Z,2.70
2022-08-11T14:13:42.670Z,2.70
2022-08-11T14:15:51.682Z,2.80
2022-08-11T14:17:57.315Z,2.50
2022-08-11T14:20:02.228Z,2.77
2022-08-11T14:22:24.415Z,2.70
2022-08-11T14:24:27.313Z,3.07
2022-08-11T14:26:31.376Z,2.90
2022-08-11T14:28:41.599Z,2.40
2022-08-11T14:31:00.416Z,2.67
2022-08-11T14:33:17.068Z,3.00
2022-08-11T14:35:22.517Z,2.80
2022-08-11T14:37:25.733Z,3.10
2022-08-11T14:39:36.090Z,3.00
2022-08-11T14:42:10.302Z,2.50
2022-08-11T14:44:34.091Z,2.60
2022-08-11T14:46:55.299Z,2.67
2022-08-11T14:48:57.611Z,2.43
2022-08-11T14:50:59.805Z,2.63
2022-08-11T14:53:15.054Z,2.70
2022-08-11T14:55:42.499Z,2.47
2022-08-11T14:57:55.231Z,3.40
2022-08-11T15:00:02.425Z,2.70
2022-08-11T15:02:24.179Z,3.20
2022-08-11T15:04:36.166Z,2.47
2022-08-11T15:06:38.739Z,2.87
2022-08-11T15:08:56.414Z,2.60
2022-08-11T15:10:58.590Z,2.47
2022-08-11T15:13:01.329Z,2.90
2022-08-11T15:15:24.855Z,2.23
2022-08-11T15:17:36.955Z,3.10
2022-08-11T15:20:05.308Z,3.00
2022-08-11T15:22:28.018Z,3.00
2022-08-11T15:24:30.957Z,2.70
2022-08-11T15:26:59.440Z,2.90
2022-08-11T15:29:23.436Z,2.50
2022-08-11T15:31:49.530Z,2.40
2022-08-11T15:34:12.769Z,2.40
2022-08-11T15:36:56.108Z,2.73
2022-08-11T15:39:10.100Z,2.60
2022-08-11T15:41:59.097Z,2.50
2022-08-11T15:44:33.810Z,2.97
2022-08-11T15:46:53.800Z,2.53
2022-08-11T15:49:09.548Z,3.10
2022-08-11T15:51:17.104Z,4.93
2022-08-11T15:53:33.675Z,2.67
2022-08-11T15:55:36.495Z,2.63
2022-08-11T15:57:58.433Z,2.90
2022-08-11T16:00:24.428Z,3.03
2022-08-11T16:02:36.183Z,2.80
2022-08-11T16:04:38.479Z,3.10
2022-08-11T16:07:16.451Z,3.17
2022-08-11T16:10:00.128Z,3.37
2022-08-11T16:12:05.561Z,2.93
2022-08-11T16:14:27.272Z,4.17
2022-08-11T16:16:30.762Z,3.00
2022-08-11T16:18:53.973Z,3.20
2022-08-11T16:20:57.130Z,2.70
2022-08-11T16:23:04.339Z,3.20
2022-08-11T16:26:30.544Z,2.43
2022-08-11T16:27:34.146Z,3.10
2022-08-11T16:29:38.203Z,3.37
2022-08-11T16:31:41.602Z,3.13
2022-08-11T16:33:50.953Z,3.23
2022-08-11T16:36:12.311Z,4.90
2022-08-11T16:38:33.345Z,3.60
2022-08-11T16:40:35.733Z,3.37
2022-08-11T16:43:06.356Z,3.30
2022-08-11T16:45:31.862Z,4.00
2022-08-11T16:48:02.715Z,5.63
2022-08-11T16:49:56.302Z,3.63
2022-08-11T16:52:04.056Z,2.93
2022-08-11T16:54:06.520Z,2.80
2022-08-11T16:56:10.140Z,9.47
2022-08-11T16:58:31.609Z,2.90
2022-08-11T17:00:34.490Z,3.00
2022-08-11T17:02:59.644Z,3.47
2022-08-11T17:05:24.910Z,2.63
2022-08-11T17:07:46.651Z,3.33
2022-08-11T17:10:38.244Z,3.03
2022-08-11T17:12:52.161Z,3.07
2022-08-11T17:14:58.113Z,3.83
2022-08-11T17:17:01.826Z,2.80
2022-08-11T17:20:40.769Z,3.40
2022-08-11T17:22:09.119Z,3.23
2022-08-11T17:24:14.418Z,2.83
2022-08-11T17:26:22.345Z,3.33
2022-08-11T17:28:26.103Z,3.00
2022-08-11T17:30:48.536Z,3.00
2022-08-11T17:33:10.329Z,3.00
2022-08-11T17:35:33.755Z,3.03
2022-08-11T17:37:37.059Z,3.43
2022-08-11T17:39:41.446Z,2.87
2022-08-11T17:42:04.547Z,3.50
2022-08-11T17:44:30.161Z,3.00
2022-08-11T17:46:51.495Z,3.10
2022-08-11T17:48:53.668Z,3.20
2022-08-11T17:50:59.200Z,3.17
2022-08-11T17:53:19.973Z,3.37
2022-08-11T17:55:51.889Z,2.90
2022-08-11T17:58:14.882Z,3.37
2022-08-11T18:00:17.381Z,3.40
2022-08-11T18:02:40.367Z,7.60
2022-08-11T18:04:43.654Z,12.53
2022-08-11T18:06:46.490Z,3.60
2022-08-11T18:09:08.197Z,3.07
2022-08-11T18:12:10.410Z,3.20
2022-08-11T18:14:10.599Z,4.40
2022-08-11T18:16:31.422Z,2.90
2022-08-11T18:18:52.287Z,4.03
2022-08-11T18:21:12.942Z,3.37
2022-08-11T18:23:40.708Z,3.77
2022-08-11T18:26:07.978Z,3.33
2022-08-11T18:28:29.709Z,3.43
2022-08-11T18:31:04.071Z,4.53
2022-08-11T18:33:50.599Z,3.60
2022-08-11T18:36:12.772Z,3.90
2022-08-11T18:38:35.766Z,2.83
2022-08-11T18:40:57.135Z,3.50
2022-08-11T18:43:26.814Z,3.60
2022-08-11T18:45:47.933Z,3.47
2022-08-11T18:48:22.265Z,3.70
2022-08-11T18:50:47.307Z,3.60
2022-08-11T18:53:23.359Z,3.30
2022-08-11T18:55:43.974Z,3.73
2022-08-11T18:58:06.097Z,3.73
2022-08-11T19:00:27.316Z,3.47
2022-08-11T19:02:50.280Z,3.83
2022-08-11T19:05:11.183Z,4.17
2022-08-11T19:07:32.719Z,3.67
2022-08-11T19:09:55.761Z,3.73
2022-08-11T19:12:17.853Z,3.37
2022-08-11T19:14:39.890Z,3.67
2022-08-11T19:17:01.934Z,2.67
2022-08-11T19:19:23.637Z,4.03
2022-08-11T19:21:46.266Z,3.60
2022-08-11T19:24:09.624Z,3.60
2022-08-11T19:26:30.143Z,3.50
2022-08-11T19:28:52.467Z,3.23
2022-08-11T19:31:13.853Z,3.97
2022-08-11T19:34:02.408Z,3.57
2022-08-11T19:36:16.482Z,4.20
2022-08-11T19:38:37.528Z,3.90
2022-08-11T19:40:58.850Z,4.23
2022-08-11T19:43:26.191Z,3.90
2022-08-11T19:45:52.181Z,4.20
2022-08-11T19:48:31.171Z,4.30
2022-08-11T19:50:52.726Z,3.70
2022-08-11T19:53:16.909Z,3.90
2022-08-11T19:55:38.589Z,4.00
2022-08-11T19:58:01.460Z,3.73
2022-08-11T20:00:30.503Z,4.77
2022-08-11T20:02:51.600Z,4.20
2022-08-11T20:05:12.344Z,4.33
2022-08-11T20:07:33.955Z,5.67
2022-08-11T20:10:04.567Z,4.43
2022-08-11T20:12:28.138Z,4.87
2022-08-11T20:14:51.536Z,4.70
2022-08-11T20:17:12.892Z,4.00
2022-08-11T20:19:55.737Z,3.80
2022-08-11T20:22:15.040Z,3.90
2022-08-11T20:24:36.369Z,4.20
2022-08-11T20:26:57.757Z,4.00
2022-08-11T20:29:19.643Z,4.10
2022-08-11T20:31:41.164Z,4.00
2022-08-11T20:34:02.137Z,5.20
2022-08-11T20:36:24.020Z,3.70
2022-08-11T20:38:48.606Z,4.20
2022-08-11T20:41:09.416Z,3.80
2022-08-11T20:44:08.493Z,4.60
2022-08-11T20:46:16.076Z,3.80
2022-08-11T20:48:38.988Z,4.57
2022-08-11T20:51:06.240Z,4.27
2022-08-11T20:53:29.334Z,4.50
2022-08-11T20:55:53.066Z,3.80
2022-08-11T20:58:18.243Z,4.47
2022-08-11T21:00:40.408Z,3.73
2022-08-11T21:03:01.355Z,4.47
2022-08-11T21:06:09.071Z,4.20
2022-08-11T21:08:08.809Z,4.03
2022-08-11T21:10:34.158Z,4.17
2022-08-11T21:12:56.253Z,4.47
2022-08-11T21:15:38.937Z,4.80
2022-08-11T21:18:06.662Z,4.07
2022-08-11T21:20:29.178Z,4.00
2022-08-11T21:22:59.283Z,3.90
2022-08-11T21:25:28.411Z,4.73
2022-08-11T21:27:51.365Z,3.97
2022-08-11T21:30:13.235Z,4.73
2022-08-11T21:32:35.629Z,4.30
2022-08-11T21:34:57.010Z,4.33
2022-08-11T21:37:19.388Z,4.90
2022-08-11T21:39:41.510Z,3.73
2022-08-11T21:42:02.749Z,3.90
2022-08-11T21:44:25.012Z,4.00
2022-08-11T21:46:45.972Z,3.63
2022-08-11T21:49:07.703Z,4.07
2022-08-11T21:51:28.228Z,4.37
2022-08-11T21:53:49.831Z,4.20
2022-08-11T21:56:10.811Z,3.70
2022-08-11T21:58:32.446Z,4.00
2022-08-11T22:00:53.461Z,3.80
2022-08-11T22:03:14.651Z,3.60
2022-08-11T22:05:35.364Z,4.13
2022-08-11T22:07:57.153Z,4.10
2022-08-11T22:10:36.940Z,4.30
2022-08-11T22:12:58.802Z,4.27
2022-08-11T22:15:22.366Z,4.10
2022-08-11T22:17:44.119Z,4.03
2022-08-11T22:20:05.177Z,3.57
2022-08-11T22:22:27.239Z,4.00
2022-08-11T22:24:48.911Z,4.00
2022-08-11T22:27:09.972Z,4.10
2022-08-11T22:29:50.669Z,4.17
2022-08-11T22:32:13.244Z,3.97
2022-08-11T22:34:34.945Z,4.53
2022-08-11T22:37:26.834Z,4.60
2022-08-11T22:40:01.994Z,3.90
2022-08-11T22:42:33.691Z,4.23
2022-08-11T22:44:55.159Z,4.37
2022-08-11T22:47:20.845Z,4.20
2022-08-11T22:49:58.194Z,3.93
2022-08-11T22:52:20.044Z,4.40
2022-08-11T22:54:41.894Z,4.07
2022-08-11T22:57:03.907Z,3.90
2022-08-11T22:59:25.834Z,3.77
2022-08-11T23:01:54.796Z,4.30
2022-08-11T23:04:17.707Z,3.90
2022-08-11T23:06:38.719Z,4.00
2022-08-11T23:08:59.567Z,4.03
2022-08-11T23:11:21.485Z,3.93
2022-08-11T23:13:42.096Z,4.33
2022-08-11T23:16:03.371Z,4.10
2022-08-11T23:18:24.767Z,4.00
2022-08-11T23:20:54.894Z,3.60
2022-08-11T23:23:16.630Z,3.47
2022-08-11T23:25:37.667Z,3.47
2022-08-11T23:27:58.352Z,3.50
2022-08-11T23:30:19.987Z,3.60
2022-08-11T23:32:41.641Z,4.07
2022-08-11T23:35:38.553Z,3.50
2022-08-11T23:37:46.949Z,3.87
2022-08-11T23:40:07.888Z,3.60
2022-08-11T23:42:29.668Z,3.87
2022-08-11T23:44:50.589Z,3.67
2022-08-11T23:47:14.388Z,3.77
2022-08-11T23:49:35.353Z,3.47
2022-08-11T23:51:58.740Z,3.43
2022-08-11T23:54:19.608Z,3.37
2022-08-11T23:56:40.111Z,3.00
2022-08-11T23:59:00.797Z,4.20
